sensor_id;sensor_type;location;lat;lon;timestamp;pressure;altitude;pressure_sealevel;temperature;humidity
49813;BME280;35706;52.100;5.056;2023-07-29T00:00:40;100646.38;;;21.08;80.72
49813;BME280;35706;52.100;5.056;2023-07-29T00:01:41;100645.56;;;21.07;80.90
49813;BME280;35706;52.100;5.056;2023-07-29T00:02:42;100642.47;;;21.10;80.65
49813;BME280;35706;52.100;5.056;2023-07-29T00:03:42;100635.69;;;21.14;80.40
49813;BME280;35706;52.100;5.056;2023-07-29T00:04:42;100628.50;;;21.08;80.69
49813;BME280;35706;52.100;5.056;2023-07-29T00:05:43;100643.53;;;20.96;81.37
49813;BME280;35706;52.100;5.056;2023-07-29T00:06:43;100637.13;;;21.04;81.19
49813;BME280;35706;52.100;5.056;2023-07-29T00:07:44;100633.44;;;21.05;81.12
49813;BME280;35706;52.100;5.056;2023-07-29T00:08:44;100629.50;;;21.14;80.28
49813;BME280;35706;52.100;5.056;2023-07-29T00:09:44;100633.00;;;21.14;80.47
49813;BME280;35706;52.100;5.056;2023-07-29T00:10:44;100635.88;;;21.13;80.80
49813;BME280;35706;52.100;5.056;2023-07-29T00:11:45;100630.72;;;21.18;80.85
49813;BME280;35706;52.100;5.056;2023-07-29T00:12:45;100628.00;;;21.25;80.76
49813;BME280;35706;52.100;5.056;2023-07-29T00:13:45;100629.41;;;21.41;79.58
49813;BME280;35706;52.100;5.056;2023-07-29T00:14:47;100628.78;;;21.39;79.49
49813;BME280;35706;52.100;5.056;2023-07-29T00:15:47;100623.28;;;21.27;80.45
49813;BME280;35706;52.100;5.056;2023-07-29T00:16:48;100627.97;;;21.38;79.89
49813;BME280;35706;52.100;5.056;2023-07-29T00:17:48;100628.66;;;21.20;80.42
49813;BME280;35706;52.100;5.056;2023-07-29T00:18:49;100618.97;;;21.26;81.01
49813;BME280;35706;52.100;5.056;2023-07-29T00:19:49;100629.56;;;20.94;82.00
49813;BME280;35706;52.100;5.056;2023-07-29T00:20:50;100621.94;;;21.04;82.05
49813;BME280;35706;52.100;5.056;2023-07-29T00:21:50;100624.38;;;21.06;81.73
49813;BME280;35706;52.100;5.056;2023-07-29T00:22:50;100623.50;;;21.25;80.92
49813;BME280;35706;52.100;5.056;2023-07-29T00:23:54;100623.22;;;20.82;82.86
49813;BME280;35706;52.100;5.056;2023-07-29T00:24:54;100625.88;;;20.82;82.87
49813;BME280;35706;52.100;5.056;2023-07-29T00:25:55;100629.59;;;20.74;83.68
49813;BME280;35706;52.100;5.056;2023-07-29T00:26:55;100628.75;;;20.87;83.40
49813;BME280;35706;52.100;5.056;2023-07-29T00:27:56;100628.09;;;21.05;82.17
49813;BME280;35706;52.100;5.056;2023-07-29T00:28:56;100629.31;;;21.09;81.89
49813;BME280;35706;52.100;5.056;2023-07-29T00:29:56;100632.03;;;20.96;82.81
49813;BME280;35706;52.100;5.056;2023-07-29T00:30:57;100632.25;;;20.94;82.68
49813;BME280;35706;52.100;5.056;2023-07-29T00:31:57;100628.75;;;20.80;83.83
49813;BME280;35706;52.100;5.056;2023-07-29T00:32:58;100629.75;;;20.99;82.84
49813;BME280;35706;52.100;5.056;2023-07-29T00:33:58;100625.66;;;20.90;83.12
49813;BME280;35706;52.100;5.056;2023-07-29T00:34:58;100627.94;;;20.80;83.68
49813;BME280;35706;52.100;5.056;2023-07-29T00:36:01;100627.50;;;20.96;83.10
49813;BME280;35706;52.100;5.056;2023-07-29T00:37:03;100628.72;;;21.07;82.84
49813;BME280;35706;52.100;5.056;2023-07-29T00:38:03;100624.59;;;21.04;82.95
49813;BME280;35706;52.100;5.056;2023-07-29T00:39:03;100622.00;;;20.71;84.13
49813;BME280;35706;52.100;5.056;2023-07-29T00:40:12;100622.41;;;20.81;84.14
49813;BME280;35706;52.100;5.056;2023-07-29T00:41:13;100618.94;;;20.67;84.61
49813;BME280;35706;52.100;5.056;2023-07-29T00:42:14;100613.38;;;20.69;84.39
49813;BME280;35706;52.100;5.056;2023-07-29T00:43:14;100614.78;;;20.78;84.09
49813;BME280;35706;52.100;5.056;2023-07-29T00:44:14;100625.00;;;21.01;83.43
49813;BME280;35706;52.100;5.056;2023-07-29T00:45:15;100615.34;;;21.07;82.80
49813;BME280;35706;52.100;5.056;2023-07-29T00:46:16;100622.56;;;21.06;82.83
49813;BME280;35706;52.100;5.056;2023-07-29T00:47:17;100611.22;;;21.11;82.69
49813;BME280;35706;52.100;5.056;2023-07-29T00:48:19;100613.44;;;21.21;82.23
49813;BME280;35706;52.100;5.056;2023-07-29T00:49:20;100610.19;;;21.12;82.51
49813;BME280;35706;52.100;5.056;2023-07-29T00:50:21;100611.81;;;21.20;82.13
49813;BME280;35706;52.100;5.056;2023-07-29T00:51:21;100608.94;;;21.21;82.31
49813;BME280;35706;52.100;5.056;2023-07-29T00:52:22;100607.25;;;21.27;82.03
49813;BME280;35706;52.100;5.056;2023-07-29T00:53:22;100610.41;;;21.10;82.60
49813;BME280;35706;52.100;5.056;2023-07-29T00:54:23;100609.78;;;21.02;82.94
49813;BME280;35706;52.100;5.056;2023-07-29T00:55:23;100610.19;;;21.12;82.90
49813;BME280;35706;52.100;5.056;2023-07-29T00:56:24;100613.91;;;21.04;83.17
49813;BME280;35706;52.100;5.056;2023-07-29T00:57:25;100614.78;;;20.85;84.02
49813;BME280;35706;52.100;5.056;2023-07-29T00:58:25;100612.75;;;20.73;84.31
49813;BME280;35706;52.100;5.056;2023-07-29T00:59:25;100605.38;;;20.56;85.85
49813;BME280;35706;52.100;5.056;2023-07-29T01:00:28;100607.81;;;20.57;85.11
49813;BME280;35706;52.100;5.056;2023-07-29T01:01:28;100606.59;;;20.46;86.62
49813;BME280;35706;52.100;5.056;2023-07-29T01:02:30;100607.63;;;20.65;85.85
49813;BME280;35706;52.100;5.056;2023-07-29T01:03:32;100604.53;;;20.48;86.37
49813;BME280;35706;52.100;5.056;2023-07-29T01:04:33;100612.56;;;20.75;85.34
49813;BME280;35706;52.100;5.056;2023-07-29T01:05:50;100608.22;;;20.74;85.09
49813;BME280;35706;52.100;5.056;2023-07-29T01:07:18;100605.81;;;20.66;85.42
49813;BME280;35706;52.100;5.056;2023-07-29T01:08:31;100609.06;;;20.81;84.99
49813;BME280;35706;52.100;5.056;2023-07-29T01:10:52;100604.56;;;20.68;85.78
49813;BME280;35706;52.100;5.056;2023-07-29T01:12:16;100610.28;;;20.72;85.58
49813;BME280;35706;52.100;5.056;2023-07-29T01:13:50;100605.38;;;20.62;85.99
49813;BME280;35706;52.100;5.056;2023-07-29T01:15:04;100600.03;;;20.69;86.12
49813;BME280;35706;52.100;5.056;2023-07-29T01:16:39;100605.94;;;20.84;85.32
49813;BME280;35706;52.100;5.056;2023-07-29T01:17:47;100600.06;;;20.49;87.02
49813;BME280;35706;52.100;5.056;2023-07-29T01:18:49;100602.28;;;20.79;85.96
49813;BME280;35706;52.100;5.056;2023-07-29T01:21:08;100603.34;;;20.64;85.91
49813;BME280;35706;52.100;5.056;2023-07-29T01:22:10;100600.88;;;20.63;85.94
49813;BME280;35706;52.100;5.056;2023-07-29T01:23:11;100600.22;;;20.74;85.60
49813;BME280;35706;52.100;5.056;2023-07-29T01:24:11;100599.63;;;20.79;85.26
49813;BME280;35706;52.100;5.056;2023-07-29T01:25:12;100599.00;;;20.50;86.66
49813;BME280;35706;52.100;5.056;2023-07-29T01:26:13;100595.28;;;20.78;85.15
49813;BME280;35706;52.100;5.056;2023-07-29T01:27:13;100591.22;;;20.62;85.56
49813;BME280;35706;52.100;5.056;2023-07-29T01:28:13;100595.94;;;20.66;85.91
49813;BME280;35706;52.100;5.056;2023-07-29T01:29:14;100595.72;;;20.74;85.21
49813;BME280;35706;52.100;5.056;2023-07-29T01:30:14;100601.72;;;20.30;87.39
49813;BME280;35706;52.100;5.056;2023-07-29T01:31:27;100585.28;;;20.60;86.47
49813;BME280;35706;52.100;5.056;2023-07-29T01:34:17;100596.75;;;20.67;85.89
49813;BME280;35706;52.100;5.056;2023-07-29T01:36:33;100596.34;;;20.77;85.75
49813;BME280;35706;52.100;5.056;2023-07-29T01:37:41;100583.41;;;20.67;86.04
49813;BME280;35706;52.100;5.056;2023-07-29T01:38:43;100589.28;;;20.89;85.28
49813;BME280;35706;52.100;5.056;2023-07-29T01:39:45;100598.78;;;20.71;85.98
49813;BME280;35706;52.100;5.056;2023-07-29T01:40:48;100586.06;;;20.53;86.99
49813;BME280;35706;52.100;5.056;2023-07-29T01:41:49;100593.47;;;20.58;86.91
49813;BME280;35706;52.100;5.056;2023-07-29T01:42:51;100585.41;;;20.78;85.36
49813;BME280;35706;52.100;5.056;2023-07-29T01:43:52;100589.56;;;20.54;87.02
49813;BME280;35706;52.100;5.056;2023-07-29T01:44:53;100592.03;;;20.49;87.08
49813;BME280;35706;52.100;5.056;2023-07-29T01:45:53;100593.88;;;20.68;86.48
49813;BME280;35706;52.100;5.056;2023-07-29T01:46:59;100595.09;;;20.72;86.17
49813;BME280;35706;52.100;5.056;2023-07-29T01:47:59;100586.09;;;20.33;88.38
49813;BME280;35706;52.100;5.056;2023-07-29T01:49:00;100593.47;;;20.65;86.77
49813;BME280;35706;52.100;5.056;2023-07-29T01:50:00;100590.81;;;20.45;87.59
49813;BME280;35706;52.100;5.056;2023-07-29T01:51:00;100590.78;;;20.51;87.25
49813;BME280;35706;52.100;5.056;2023-07-29T01:52:01;100585.06;;;20.41;87.97
49813;BME280;35706;52.100;5.056;2023-07-29T01:53:01;100588.94;;;20.65;86.54
49813;BME280;35706;52.100;5.056;2023-07-29T01:54:02;100579.69;;;20.54;87.09
49813;BME280;35706;52.100;5.056;2023-07-29T01:55:03;100584.44;;;20.66;86.89
49813;BME280;35706;52.100;5.056;2023-07-29T01:56:03;100597.56;;;20.47;87.78
49813;BME280;35706;52.100;5.056;2023-07-29T01:57:04;100596.78;;;20.60;87.26
49813;BME280;35706;52.100;5.056;2023-07-29T01:58:04;100582.81;;;20.45;88.01
49813;BME280;35706;52.100;5.056;2023-07-29T01:59:04;100587.31;;;20.64;87.10
49813;BME280;35706;52.100;5.056;2023-07-29T02:00:05;100586.28;;;20.45;87.80
49813;BME280;35706;52.100;5.056;2023-07-29T02:01:06;100585.06;;;20.21;88.84
49813;BME280;35706;52.100;5.056;2023-07-29T02:02:06;100576.66;;;20.24;89.28
49813;BME280;35706;52.100;5.056;2023-07-29T02:03:06;100582.38;;;20.14;89.60
49813;BME280;35706;52.100;5.056;2023-07-29T02:04:07;100576.06;;;20.09;90.00
49813;BME280;35706;52.100;5.056;2023-07-29T02:05:07;100574.78;;;20.31;89.06
49813;BME280;35706;52.100;5.056;2023-07-29T02:06:07;100575.63;;;20.39;88.59
49813;BME280;35706;52.100;5.056;2023-07-29T02:07:08;100572.31;;;20.23;88.96
49813;BME280;35706;52.100;5.056;2023-07-29T02:08:08;100578.72;;;20.09;90.27
49813;BME280;35706;52.100;5.056;2023-07-29T02:09:09;100567.84;;;20.24;89.60
49813;BME280;35706;52.100;5.056;2023-07-29T02:10:09;100564.53;;;20.28;89.48
49813;BME280;35706;52.100;5.056;2023-07-29T02:11:10;100555.28;;;20.31;88.62
49813;BME280;35706;52.100;5.056;2023-07-29T02:12:10;100562.06;;;20.33;88.84
49813;BME280;35706;52.100;5.056;2023-07-29T02:13:11;100567.22;;;20.28;89.21
49813;BME280;35706;52.100;5.056;2023-07-29T02:14:11;100577.91;;;20.15;89.46
49813;BME280;35706;52.100;5.056;2023-07-29T02:15:12;100570.09;;;20.00;90.17
49813;BME280;35706;52.100;5.056;2023-07-29T02:16:12;100575.22;;;19.95;90.56
49813;BME280;35706;52.100;5.056;2023-07-29T02:17:12;100569.06;;;20.01;90.48
49813;BME280;35706;52.100;5.056;2023-07-29T02:18:13;100571.53;;;20.03;89.98
49813;BME280;35706;52.100;5.056;2023-07-29T02:19:13;100568.22;;;19.87;90.74
49813;BME280;35706;52.100;5.056;2023-07-29T02:20:13;100567.22;;;20.28;88.58
49813;BME280;35706;52.100;5.056;2023-07-29T02:21:14;100571.72;;;20.41;87.97
49813;BME280;35706;52.100;5.056;2023-07-29T02:22:16;100571.50;;;20.49;87.38
49813;BME280;35706;52.100;5.056;2023-07-29T02:23:16;100577.91;;;20.15;88.31
49813;BME280;35706;52.100;5.056;2023-07-29T02:24:17;100571.91;;;20.00;89.53
49813;BME280;35706;52.100;5.056;2023-07-29T02:25:17;100571.94;;;20.20;88.69
49813;BME280;35706;52.100;5.056;2023-07-29T02:26:18;100568.00;;;20.36;87.99
49813;BME280;35706;52.100;5.056;2023-07-29T02:27:18;100575.63;;;20.39;87.38
49813;BME280;35706;52.100;5.056;2023-07-29T02:28:18;100569.28;;;20.13;88.07
49813;BME280;35706;52.100;5.056;2023-07-29T02:29:19;100567.63;;;20.12;88.47
49813;BME280;35706;52.100;5.056;2023-07-29T02:30:20;100564.53;;;20.28;87.71
49813;BME280;35706;52.100;5.056;2023-07-29T02:31:22;100559.41;;;20.20;87.50
49813;BME280;35706;52.100;5.056;2023-07-29T02:32:23;100561.25;;;20.00;87.60
49813;BME280;35706;52.100;5.056;2023-07-29T02:33:24;100558.59;;;20.13;87.49
49813;BME280;35706;52.100;5.056;2023-07-29T02:34:24;100568.25;;;20.14;87.07
49813;BME280;35706;52.100;5.056;2023-07-29T02:35:25;100553.66;;;20.23;86.20
49813;BME280;35706;52.100;5.056;2023-07-29T02:36:25;100555.53;;;19.96;87.95
49813;BME280;35706;52.100;5.056;2023-07-29T02:37:26;100560.44;;;20.06;87.49
49813;BME280;35706;52.100;5.056;2023-07-29T02:38:26;100557.78;;;19.99;87.03
49813;BME280;35706;52.100;5.056;2023-07-29T02:39:26;100561.69;;;19.97;87.13
49813;BME280;35706;52.100;5.056;2023-07-29T02:40:27;100562.06;;;19.87;87.19
49813;BME280;35706;52.100;5.056;2023-07-29T02:41:29;100558.38;;;19.95;86.95
49813;BME280;35706;52.100;5.056;2023-07-29T02:42:29;100559.63;;;19.92;86.50
49813;BME280;35706;52.100;5.056;2023-07-29T02:43:30;100563.09;;;19.99;85.94
49813;BME280;35706;52.100;5.056;2023-07-29T02:44:30;100557.97;;;19.98;86.19
49813;BME280;35706;52.100;5.056;2023-07-29T02:45:30;100562.50;;;19.90;86.44
49813;BME280;35706;52.100;5.056;2023-07-29T02:46:31;100562.28;;;20.05;85.70
49813;BME280;35706;52.100;5.056;2023-07-29T02:47:31;100558.78;;;19.85;86.66
49813;BME280;35706;52.100;5.056;2023-07-29T02:48:31;100545.66;;;20.17;85.19
49813;BME280;35706;52.100;5.056;2023-07-29T02:49:32;100551.59;;;20.19;84.79
49813;BME280;35706;52.100;5.056;2023-07-29T02:50:34;100554.69;;;20.22;84.69
49813;BME280;35706;52.100;5.056;2023-07-29T02:51:34;100555.31;;;20.18;84.98
49813;BME280;35706;52.100;5.056;2023-07-29T02:52:35;100555.50;;;20.16;84.72
49813;BME280;35706;52.100;5.056;2023-07-29T02:53:35;100556.56;;;20.15;84.55
49813;BME280;35706;52.100;5.056;2023-07-29T02:54:36;100560.63;;;19.98;84.82
49813;BME280;35706;52.100;5.056;2023-07-29T02:55:40;100555.53;;;20.09;84.38
49813;BME280;35706;52.100;5.056;2023-07-29T02:56:41;100552.41;;;19.72;85.89
49813;BME280;35706;52.100;5.056;2023-07-29T02:57:41;100555.31;;;19.91;85.57
49813;BME280;35706;52.100;5.056;2023-07-29T02:58:41;100555.53;;;20.03;84.55
49813;BME280;35706;52.100;5.056;2023-07-29T02:59:42;100546.84;;;19.67;85.71
49813;BME280;35706;52.100;5.056;2023-07-29T03:00:42;100547.72;;;19.81;85.42
49813;BME280;35706;52.100;5.056;2023-07-29T03:01:43;100536.22;;;20.01;84.46
49813;BME280;35706;52.100;5.056;2023-07-29T03:02:43;100539.72;;;20.01;84.36
49813;BME280;35706;52.100;5.056;2023-07-29T03:03:44;100541.34;;;20.22;83.71
49813;BME280;35706;52.100;5.056;2023-07-29T03:04:44;100541.34;;;19.89;84.48
49813;BME280;35706;52.100;5.056;2023-07-29T03:05:45;100538.91;;;20.07;83.90
49813;BME280;35706;52.100;5.056;2023-07-29T03:06:45;100540.72;;;19.93;84.53
49813;BME280;35706;52.100;5.056;2023-07-29T03:07:47;100535.41;;;20.07;83.64
49813;BME280;35706;52.100;5.056;2023-07-29T03:08:48;100538.88;;;19.87;84.25
49813;BME280;35706;52.100;5.056;2023-07-29T03:09:48;100536.84;;;19.76;84.74
49813;BME280;35706;52.100;5.056;2023-07-29T03:10:48;100543.81;;;19.77;84.63
49813;BME280;35706;52.100;5.056;2023-07-29T03:11:49;100538.69;;;19.89;84.64
49813;BME280;35706;52.100;5.056;2023-07-29T03:12:49;100548.53;;;19.75;85.06
49813;BME280;35706;52.100;5.056;2023-07-29T03:13:49;100539.66;;;19.68;85.22
49813;BME280;35706;52.100;5.056;2023-07-29T03:14:49;100544.03;;;19.82;85.07
49813;BME280;35706;52.100;5.056;2023-07-29T03:15:51;100543.81;;;19.97;84.21
49813;BME280;35706;52.100;5.056;2023-07-29T03:16:51;100547.09;;;19.86;85.09
49813;BME280;35706;52.100;5.056;2023-07-29T03:17:52;100544.44;;;19.99;84.05
49813;BME280;35706;52.100;5.056;2023-07-29T03:18:53;100538.50;;;20.17;83.24
49813;BME280;35706;52.100;5.056;2023-07-29T03:19:53;100540.94;;;20.05;83.37
49813;BME280;35706;52.100;5.056;2023-07-29T03:20:55;100540.53;;;20.15;83.46
49813;BME280;35706;52.100;5.056;2023-07-29T03:21:56;100537.25;;;20.13;83.11
49813;BME280;35706;52.100;5.056;2023-07-29T03:22:56;100544.66;;;20.11;83.07
49813;BME280;35706;52.100;5.056;2023-07-29T03:23:56;100540.91;;;20.25;82.61
49813;BME280;35706;52.100;5.056;2023-07-29T03:24:57;100531.72;;;20.01;83.46
49813;BME280;35706;52.100;5.056;2023-07-29T03:25:58;100536.03;;;20.16;82.85
49813;BME280;35706;52.100;5.056;2023-07-29T03:26:59;100538.69;;;20.02;83.44
49813;BME280;35706;52.100;5.056;2023-07-29T03:27:59;100537.66;;;20.03;83.31
49813;BME280;35706;52.100;5.056;2023-07-29T03:29:00;100533.56;;;20.14;82.86
49813;BME280;35706;52.100;5.056;2023-07-29T03:30:00;100541.75;;;20.26;82.30
49813;BME280;35706;52.100;5.056;2023-07-29T03:31:00;100549.13;;;20.44;81.70
49813;BME280;35706;52.100;5.056;2023-07-29T03:32:02;100545.41;;;20.51;81.26
49813;BME280;35706;52.100;5.056;2023-07-29T03:33:03;100542.53;;;20.46;81.13
49813;BME280;35706;52.100;5.056;2023-07-29T03:34:04;100543.81;;;20.24;81.80
49813;BME280;35706;52.100;5.056;2023-07-29T03:35:05;100540.09;;;20.31;81.80
49813;BME280;35706;52.100;5.056;2023-07-29T03:36:05;100536.41;;;20.19;81.86
49813;BME280;35706;52.100;5.056;2023-07-29T03:37:06;100537.03;;;20.08;82.33
49813;BME280;35706;52.100;5.056;2023-07-29T03:38:06;100537.25;;;20.06;82.46
49813;BME280;35706;52.100;5.056;2023-07-29T03:39:06;100548.13;;;19.78;83.52
49813;BME280;35706;52.100;5.056;2023-07-29T03:40:08;100550.38;;;20.01;82.72
49813;BME280;35706;52.100;5.056;2023-07-29T03:41:11;100554.69;;;19.76;83.77
49813;BME280;35706;52.100;5.056;2023-07-29T03:42:12;100549.56;;;19.94;83.67
49813;BME280;35706;52.100;5.056;2023-07-29T03:43:13;100557.16;;;20.04;82.63
49813;BME280;35706;52.100;5.056;2023-07-29T03:44:13;100555.72;;;20.08;82.66
49813;BME280;35706;52.100;5.056;2023-07-29T03:45:13;100554.28;;;20.05;82.53
49813;BME280;35706;52.100;5.056;2023-07-29T03:46:14;100556.53;;;20.28;81.67
49813;BME280;35706;52.100;5.056;2023-07-29T03:47:17;100563.53;;;19.96;82.65
49813;BME280;35706;52.100;5.056;2023-07-29T03:48:18;100561.44;;;19.71;83.56
49813;BME280;35706;52.100;5.056;2023-07-29T03:49:18;100557.78;;;19.79;83.39
49813;BME280;35706;52.100;5.056;2023-07-29T03:50:18;100557.34;;;19.76;83.38
49813;BME280;35706;52.100;5.056;2023-07-29T03:51:19;100555.22;;;19.58;84.04
49813;BME280;35706;52.100;5.056;2023-07-29T03:52:19;100557.06;;;19.44;84.62
49813;BME280;35706;52.100;5.056;2023-07-29T03:53:20;100556.13;;;19.78;83.25
49813;BME280;35706;52.100;5.056;2023-07-29T03:54:20;100559.59;;;19.85;83.13
49813;BME280;35706;52.100;5.056;2023-07-29T03:55:21;100553.88;;;20.02;82.58
49813;BME280;35706;52.100;5.056;2023-07-29T03:56:21;100560.00;;;20.02;82.25
49813;BME280;35706;52.100;5.056;2023-07-29T03:57:21;100561.44;;;19.71;83.12
49813;BME280;35706;52.100;5.056;2023-07-29T03:58:22;100562.25;;;19.72;83.22
49813;BME280;35706;52.100;5.056;2023-07-29T03:59:22;100563.50;;;19.83;82.96
49813;BME280;35706;52.100;5.056;2023-07-29T04:00:23;100557.34;;;19.89;82.51
49813;BME280;35706;52.100;5.056;2023-07-29T04:01:23;100557.34;;;19.96;82.26
49813;BME280;35706;52.100;5.056;2023-07-29T04:02:23;100553.84;;;19.68;83.06
49813;BME280;35706;52.100;5.056;2023-07-29T04:03:24;100548.53;;;19.75;83.15
49813;BME280;35706;52.100;5.056;2023-07-29T04:04:24;100549.50;;;19.47;83.96
49813;BME280;35706;52.100;5.056;2023-07-29T04:05:25;100546.06;;;19.80;82.79
49813;BME280;35706;52.100;5.056;2023-07-29T04:06:25;100546.50;;;19.84;82.17
49813;BME280;35706;52.100;5.056;2023-07-29T04:07:26;100545.41;;;19.51;83.61
49813;BME280;35706;52.100;5.056;2023-07-29T04:08:26;100548.41;;;19.28;84.82
49813;BME280;35706;52.100;5.056;2023-07-29T04:09:26;100549.50;;;19.47;84.23
49813;BME280;35706;52.100;5.056;2023-07-29T04:10:26;100548.50;;;19.68;83.32
49813;BME280;35706;52.100;5.056;2023-07-29T04:11:27;100550.59;;;19.93;82.03
49813;BME280;35706;52.100;5.056;2023-07-29T04:12:27;100550.59;;;19.86;82.42
49813;BME280;35706;52.100;5.056;2023-07-29T04:13:28;100564.31;;;19.70;82.49
49813;BME280;35706;52.100;5.056;2023-07-29T04:14:28;100569.59;;;19.57;83.72
49813;BME280;35706;52.100;5.056;2023-07-29T04:15:29;100564.31;;;19.70;83.07
49813;BME280;35706;52.100;5.056;2023-07-29T04:16:30;100552.38;;;19.66;83.48
49813;BME280;35706;52.100;5.056;2023-07-29T04:17:30;100559.13;;;19.62;83.44
49813;BME280;35706;52.100;5.056;2023-07-29T04:18:31;100556.06;;;19.51;83.75
49813;BME280;35706;52.100;5.056;2023-07-29T04:19:31;100562.81;;;19.47;83.98
49813;BME280;35706;52.100;5.056;2023-07-29T04:20:32;100563.44;;;19.56;84.09
49813;BME280;35706;52.100;5.056;2023-07-29T04:21:33;100552.38;;;19.66;83.66
49813;BME280;35706;52.100;5.056;2023-07-29T04:22:34;100550.78;;;19.71;83.38
49813;BME280;35706;52.100;5.056;2023-07-29T04:23:34;100549.16;;;19.90;82.39
49813;BME280;35706;52.100;5.056;2023-07-29T04:24:35;100551.41;;;19.80;82.48
49813;BME280;35706;52.100;5.056;2023-07-29T04:25:35;100557.25;;;19.49;83.57
49813;BME280;35706;52.100;5.056;2023-07-29T04:26:36;100559.72;;;19.50;83.91
49813;BME280;35706;52.100;5.056;2023-07-29T04:27:36;100561.03;;;19.75;83.29
49813;BME280;35706;52.100;5.056;2023-07-29T04:28:36;100555.47;;;19.69;83.00
49813;BME280;35706;52.100;5.056;2023-07-29T04:29:37;100566.53;;;19.66;83.52
49813;BME280;35706;52.100;5.056;2023-07-29T04:30:37;100554.03;;;19.60;83.47
49813;BME280;35706;52.100;5.056;2023-07-29T04:31:37;100556.06;;;19.65;83.42
49813;BME280;35706;52.100;5.056;2023-07-29T04:32:38;100551.13;;;19.62;83.62
49813;BME280;35706;52.100;5.056;2023-07-29T04:33:38;100557.34;;;19.76;82.92
49813;BME280;35706;52.100;5.056;2023-07-29T04:34:39;100552.38;;;19.59;83.89
49813;BME280;35706;52.100;5.056;2023-07-29T04:35:39;100546.66;;;19.69;83.23
49813;BME280;35706;52.100;5.056;2023-07-29T04:36:40;100551.13;;;19.55;83.84
49813;BME280;35706;52.100;5.056;2023-07-29T04:37:40;100545.00;;;19.68;83.62
49813;BME280;35706;52.100;5.056;2023-07-29T04:38:41;100547.31;;;19.91;82.33
49813;BME280;35706;52.100;5.056;2023-07-29T04:39:41;100553.97;;;19.53;84.22
49813;BME280;35706;52.100;5.056;2023-07-29T04:40:41;100554.84;;;19.61;83.58
49813;BME280;35706;52.100;5.056;2023-07-29T04:41:41;100559.28;;;19.33;84.85
49813;BME280;35706;52.100;5.056;2023-07-29T04:42:42;100555.63;;;19.41;84.48
49813;BME280;35706;52.100;5.056;2023-07-29T04:43:42;100548.28;;;19.63;83.88
49813;BME280;35706;52.100;5.056;2023-07-29T04:44:43;100557.28;;;19.56;84.51
49813;BME280;35706;52.100;5.056;2023-07-29T04:45:44;100554.16;;;19.39;84.84
49813;BME280;35706;52.100;5.056;2023-07-29T04:46:44;100558.44;;;19.26;85.27
49813;BME280;35706;52.100;5.056;2023-07-29T04:47:44;100549.84;;;19.31;85.49
49813;BME280;35706;52.100;5.056;2023-07-29T04:48:45;100549.69;;;19.52;84.92
49813;BME280;35706;52.100;5.056;2023-07-29T04:49:45;100546.59;;;19.42;85.26
49813;BME280;35706;52.100;5.056;2023-07-29T04:50:46;100535.31;;;19.40;85.04
49813;BME280;35706;52.100;5.056;2023-07-29T04:51:46;100543.53;;;19.52;85.06
49813;BME280;35706;52.100;5.056;2023-07-29T04:52:46;100552.53;;;19.44;85.21
49813;BME280;35706;52.100;5.056;2023-07-29T04:53:47;100566.09;;;19.49;84.76
49813;BME280;35706;52.100;5.056;2023-07-29T04:54:47;100570.56;;;19.42;85.55
49813;BME280;35706;52.100;5.056;2023-07-29T04:55:47;100573.88;;;19.58;84.74
49813;BME280;35706;52.100;5.056;2023-07-29T04:56:48;100579.78;;;19.26;86.36
49813;BME280;35706;52.100;5.056;2023-07-29T04:57:48;100575.69;;;19.37;85.66
49813;BME280;35706;52.100;5.056;2023-07-29T04:58:48;100560.56;;;19.58;84.80
49813;BME280;35706;52.100;5.056;2023-07-29T04:59:49;100562.06;;;19.05;86.93
49813;BME280;35706;52.100;5.056;2023-07-29T05:00:49;100561.53;;;19.37;86.11
49813;BME280;35706;52.100;5.056;2023-07-29T05:01:49;100562.97;;;19.32;86.00
49813;BME280;35706;52.100;5.056;2023-07-29T05:02:50;100559.13;;;19.48;85.50
49813;BME280;35706;52.100;5.056;2023-07-29T05:03:51;100560.97;;;19.48;85.72
49813;BME280;35706;52.100;5.056;2023-07-29T05:04:51;100566.66;;;19.31;85.81
49813;BME280;35706;52.100;5.056;2023-07-29T05:05:52;100564.88;;;19.52;85.52
49813;BME280;35706;52.100;5.056;2023-07-29T05:06:54;100568.44;;;19.79;84.25
49813;BME280;35706;52.100;5.056;2023-07-29T05:07:55;100577.00;;;19.68;84.38
49813;BME280;35706;52.100;5.056;2023-07-29T05:08:57;100584.75;;;19.49;85.84
49813;BME280;35706;52.100;5.056;2023-07-29T05:09:58;100579.59;;;19.35;86.42
49813;BME280;35706;52.100;5.056;2023-07-29T05:10:58;100578.22;;;19.65;85.06
49813;BME280;35706;52.100;5.056;2023-07-29T05:11:58;100572.25;;;19.50;85.45
49813;BME280;35706;52.100;5.056;2023-07-29T05:12:58;100573.88;;;19.44;86.08
49813;BME280;35706;52.100;5.056;2023-07-29T05:13:59;100570.81;;;19.47;85.95
49813;BME280;35706;52.100;5.056;2023-07-29T05:14:59;100568.38;;;19.66;85.14
49813;BME280;35706;52.100;5.056;2023-07-29T05:16:00;100571.06;;;19.72;84.94
49813;BME280;35706;52.100;5.056;2023-07-29T05:17:00;100578.41;;;19.50;85.49
49813;BME280;35706;52.100;5.056;2023-07-29T05:18:00;100569.03;;;19.75;84.74
49813;BME280;35706;52.100;5.056;2023-07-29T05:19:01;100563.47;;;19.63;85.36
49813;BME280;35706;52.100;5.056;2023-07-29T05:20:01;100566.34;;;19.75;84.80
49813;BME280;35706;52.100;5.056;2023-07-29T05:21:01;100561.41;;;19.58;85.33
49813;BME280;35706;52.100;5.056;2023-07-29T05:22:02;100568.34;;;19.52;85.80
49813;BME280;35706;52.100;5.056;2023-07-29T05:23:02;100565.50;;;19.61;85.46
49813;BME280;35706;52.100;5.056;2023-07-29T05:24:03;100567.78;;;19.70;85.13
49813;BME280;35706;52.100;5.056;2023-07-29T05:25:04;100571.91;;;19.73;85.12
49813;BME280;35706;52.100;5.056;2023-07-29T05:26:04;100571.44;;;19.56;85.56